createdAt,value
2017-10-30T00:00:08.803Z,0
2017-10-30T00:01:20.774Z,0
2017-10-30T00:02:33.386Z,0
2017-10-30T00:03:45.379Z,0
2017-10-30T00:04:57.960Z,0
2017-10-30T00:06:09.932Z,0
2017-10-30T00:07:22.544Z,0
2017-10-30T00:08:34.498Z,0
2017-10-30T00:09:47.115Z,0
2017-10-30T00:10:59.411Z,0
2017-10-30T00:12:12.023Z,0
2017-10-30T00:13:24.652Z,0
2017-10-30T00:14:37.272Z,0
2017-10-30T00:15:49.845Z,0
2017-10-30T00:17:02.142Z,0
2017-10-30T00:18:14.730Z,0
2017-10-30T00:19:27.358Z,0
2017-10-30T00:20:39.967Z,0
2017-10-30T00:21:52.241Z,0
2017-10-30T00:23:04.485Z,0
2017-10-30T00:24:17.112Z,0
2017-10-30T00:25:29.729Z,0
2017-10-30T00:26:42.350Z,0
2017-10-30T00:27:54.627Z,0
2017-10-30T00:29:06.948Z,0
2017-10-30T00:30:19.257Z,0
2017-10-30T00:31:31.554Z,0
2017-10-30T00:32:43.832Z,0
2017-10-30T00:33:55.803Z,0
2017-10-30T00:35:08.115Z,0
2017-10-30T00:36:21.001Z,0
2017-10-30T00:37:33.610Z,0
2017-10-30T00:38:46.209Z,0
2017-10-30T00:39:58.484Z,0
2017-10-30T00:41:11.104Z,0
2017-10-30T00:42:23.726Z,0
2017-10-30T00:43:36.340Z,0
2017-10-30T00:44:48.621Z,0
2017-10-30T00:46:01.209Z,0
2017-10-30T00:47:13.500Z,0
2017-10-30T00:48:25.454Z,0
2017-10-30T00:49:37.750Z,0
2017-10-30T00:50:50.369Z,0
2017-10-30T00:52:02.340Z,0
2017-10-30T00:53:14.313Z,0
2017-10-30T00:54:26.581Z,0
2017-10-30T00:55:39.203Z,0
2017-10-30T00:56:51.494Z,0
2017-10-30T00:58:04.090Z,0
2017-10-30T00:59:16.708Z,0
2017-10-30T01:00:29.324Z,0
2017-10-30T01:01:41.602Z,0
2017-10-30T01:02:54.202Z,0
2017-10-30T01:04:06.778Z,0
2017-10-30T01:05:18.117Z,0
2017-10-30T01:06:30.719Z,0
2017-10-30T01:07:43.332Z,0
2017-10-30T01:08:55.647Z,0
2017-10-30T01:10:08.264Z,0
2017-10-30T01:11:20.839Z,0
2017-10-30T01:12:33.115Z,0
2017-10-30T01:13:45.702Z,0
2017-10-30T01:14:58.000Z,0
2017-10-30T01:16:10.597Z,0
2017-10-30T01:17:23.202Z,0
2017-10-30T01:18:35.809Z,0
2017-10-30T01:19:48.015Z,0
2017-10-30T01:20:59.662Z,0
2017-10-30T01:22:12.257Z,0
2017-10-30T01:23:24.891Z,0
2017-10-30T01:24:37.492Z,0
2017-10-30T01:25:50.115Z,0
2017-10-30T01:27:02.413Z,0
2017-10-30T01:28:14.682Z,0
2017-10-30T01:29:26.953Z,0
2017-10-30T01:30:39.283Z,0
2017-10-30T01:31:51.913Z,0
2017-10-30T01:33:04.211Z,0
2017-10-30T01:34:16.819Z,0
2017-10-30T01:35:29.435Z,0
2017-10-30T01:36:41.780Z,0
2017-10-30T01:37:54.414Z,0
2017-10-30T01:39:06.699Z,0
2017-10-30T01:40:19.292Z,0
2017-10-30T01:41:31.913Z,0
2017-10-30T01:42:44.521Z,0
2017-10-30T01:43:57.117Z,0
2017-10-30T01:45:09.424Z,0
2017-10-30T01:46:22.017Z,0
2017-10-30T01:47:34.290Z,0
2017-10-30T01:48:46.565Z,0
2017-10-30T01:49:58.853Z,0
2017-10-30T01:51:11.473Z,0
2017-10-30T01:52:23.796Z,0
2017-10-30T01:53:36.386Z,0
2017-10-30T01:54:49.002Z,0
2017-10-30T01:56:01.588Z,0
2017-10-30T01:57:14.197Z,0
2017-10-30T01:58:26.139Z,0
2017-10-30T01:59:38.421Z,0
2017-10-30T02:00:50.390Z,0
2017-10-30T02:02:02.988Z,0
2017-10-30T02:03:15.281Z,0
2017-10-30T02:04:27.568Z,0
2017-10-30T02:05:39.815Z,0
2017-10-30T02:06:52.398Z,0
2017-10-30T02:08:04.667Z,0
2017-10-30T02:09:17.536Z,0
2017-10-30T02:10:30.132Z,0
2017-10-30T02:11:42.417Z,0
2017-10-30T02:12:54.712Z,0
2017-10-30T02:14:06.990Z,0
2017-10-30T02:15:19.590Z,0
2017-10-30T02:16:31.557Z,0
2017-10-30T02:17:43.828Z,0
2017-10-30T02:18:55.777Z,0
2017-10-30T02:20:08.069Z,0
2017-10-30T02:21:20.643Z,0
2017-10-30T02:22:33.260Z,0
2017-10-30T02:23:45.885Z,0
2017-10-30T02:24:58.469Z,0
2017-10-30T02:26:10.752Z,0
2017-10-30T02:27:23.372Z,0
2017-10-30T02:28:35.989Z,0
2017-10-30T02:29:48.277Z,0
2017-10-30T02:31:00.889Z,0
2017-10-30T02:32:12.896Z,0
2017-10-30T02:33:25.525Z,0
2017-10-30T02:34:38.109Z,0
2017-10-30T02:35:50.705Z,0
2017-10-30T02:37:03.327Z,0
2017-10-30T02:38:15.611Z,0
2017-10-30T02:39:28.199Z,0
2017-10-30T02:40:40.498Z,0
2017-10-30T02:41:53.098Z,0
2017-10-30T02:43:05.723Z,0
2017-10-30T02:44:18.028Z,0
2017-10-30T02:45:30.298Z,0
2017-10-30T02:46:42.902Z,0
2017-10-30T02:47:55.501Z,0
2017-10-30T02:49:07.783Z,0
2017-10-30T02:50:20.091Z,0
2017-10-30T02:51:32.360Z,0
2017-10-30T02:52:44.955Z,0
2017-10-30T02:53:57.579Z,0
2017-10-30T02:55:09.865Z,0
2017-10-30T02:56:22.457Z,0
2017-10-30T02:57:35.366Z,0
2017-10-30T02:58:47.973Z,0
2017-10-30T03:00:00.253Z,0
2017-10-30T03:01:12.514Z,0
2017-10-30T03:02:24.787Z,0
2017-10-30T03:03:37.090Z,0
2017-10-30T03:04:49.709Z,0
2017-10-30T03:06:02.335Z,0
2017-10-30T03:07:14.916Z,0
2017-10-30T03:08:27.495Z,0
2017-10-30T03:09:40.136Z,0
2017-10-30T03:10:52.761Z,0
2017-10-30T03:12:05.050Z,0
2017-10-30T03:13:17.655Z,0
2017-10-30T03:14:30.248Z,0
2017-10-30T03:15:42.569Z,0
2017-10-30T03:16:55.193Z,0
2017-10-30T03:18:07.492Z,0
2017-10-30T03:19:20.098Z,0
2017-10-30T03:20:32.718Z,0
2017-10-30T03:21:44.974Z,0
2017-10-30T03:22:57.247Z,0
2017-10-30T03:24:09.555Z,0
2017-10-30T03:25:22.152Z,0
2017-10-30T03:26:34.782Z,0
2017-10-30T03:27:47.400Z,0
2017-10-30T03:29:00.017Z,0
2017-10-30T03:30:12.867Z,0
2017-10-30T03:31:25.144Z,0
2017-10-30T03:32:37.133Z,0
2017-10-30T03:33:49.400Z,0
2017-10-30T03:35:02.001Z,0
2017-10-30T03:36:14.616Z,0
2017-10-30T03:37:26.892Z,0
2017-10-30T03:38:39.185Z,0
2017-10-30T03:39:51.450Z,0
2017-10-30T03:41:04.377Z,0
2017-10-30T03:42:16.992Z,0
2017-10-30T03:43:29.611Z,0
2017-10-30T03:44:42.243Z,0
2017-10-30T03:45:54.213Z,0
2017-10-30T03:47:06.179Z,0
2017-10-30T03:48:18.777Z,0
2017-10-30T03:49:31.068Z,0
2017-10-30T03:50:43.334Z,0
2017-10-30T03:51:55.944Z,0
2017-10-30T03:53:07.885Z,0
2017-10-30T03:54:20.129Z,0
2017-10-30T03:55:32.399Z,0
2017-10-30T03:56:44.667Z,0
2017-10-30T03:57:57.296Z,0
2017-10-30T03:59:09.589Z,0
2017-10-30T04:00:21.891Z,0
2017-10-30T04:01:34.504Z,0
2017-10-30T04:02:47.105Z,0
2017-10-30T04:03:59.712Z,0
2017-10-30T04:05:12.318Z,0
2017-10-30T04:06:24.588Z,0
2017-10-30T04:07:37.199Z,0
2017-10-30T04:08:49.806Z,0
2017-10-30T04:10:02.081Z,0
2017-10-30T04:11:14.696Z,0
2017-10-30T04:12:27.317Z,0
2017-10-30T04:13:39.936Z,0
2017-10-30T04:14:52.534Z,0
2017-10-30T04:16:05.153Z,0
2017-10-30T04:17:17.439Z,0
2017-10-30T04:18:29.436Z,0
2017-10-30T04:19:42.015Z,0
2017-10-30T04:20:53.633Z,0
2017-10-30T04:22:05.903Z,0
2017-10-30T04:23:18.505Z,0
2017-10-30T04:24:31.096Z,0
2017-10-30T04:25:43.718Z,0
2017-10-30T04:26:55.992Z,0
2017-10-30T04:28:08.289Z,0
2017-10-30T04:29:20.227Z,0
2017-10-30T04:30:32.821Z,0
2017-10-30T04:31:45.475Z,0
2017-10-30T04:32:58.065Z,0
2017-10-30T04:34:10.359Z,0
2017-10-30T04:35:22.977Z,0
2017-10-30T04:36:35.597Z,0
2017-10-30T04:37:47.892Z,0
2017-10-30T04:39:00.188Z,0
2017-10-30T04:40:12.480Z,0
2017-10-30T04:41:24.751Z,0
2017-10-30T04:42:37.333Z,0
2017-10-30T04:43:49.952Z,0
2017-10-30T04:45:02.546Z,0
2017-10-30T04:46:14.819Z,0
2017-10-30T04:47:27.423Z,0
2017-10-30T04:48:40.037Z,0
2017-10-30T04:49:52.625Z,0
2017-10-30T04:51:05.221Z,0
2017-10-30T04:52:17.840Z,0
2017-10-30T04:53:30.442Z,0
2017-10-30T04:54:43.037Z,0
2017-10-30T04:55:55.636Z,0
2017-10-30T04:57:08.233Z,0
2017-10-30T04:58:20.544Z,0
2017-10-30T04:59:33.168Z,0
2017-10-30T05:00:45.433Z,0
2017-10-30T05:01:58.027Z,0
2017-10-30T05:03:10.873Z,0
2017-10-30T05:04:23.155Z,0
2017-10-30T05:05:35.773Z,0
2017-10-30T05:06:48.399Z,0
2017-10-30T05:08:00.981Z,0
2017-10-30T05:09:13.601Z,0
2017-10-30T05:10:26.234Z,0
2017-10-30T05:11:38.821Z,0
2017-10-30T05:12:51.141Z,0
2017-10-30T05:14:03.770Z,0
2017-10-30T05:15:16.408Z,0
2017-10-30T05:16:28.711Z,0
2017-10-30T05:17:40.357Z,0
2017-10-30T05:18:52.683Z,0
2017-10-30T05:20:05.294Z,0
2017-10-30T05:21:17.916Z,0
2017-10-30T05:22:30.503Z,0
2017-10-30T05:23:42.799Z,0
2017-10-30T05:24:55.395Z,4
2017-10-30T05:26:08.001Z,4
2017-10-30T05:27:20.294Z,0
2017-10-30T05:28:32.882Z,4
2017-10-30T05:29:45.463Z,4
2017-10-30T05:30:58.084Z,4
2017-10-30T05:32:10.680Z,4
2017-10-30T05:33:23.290Z,8
2017-10-30T05:34:35.560Z,12
2017-10-30T05:35:48.188Z,12
2017-10-30T05:37:00.788Z,16
2017-10-30T05:38:13.430Z,20
2017-10-30T05:39:25.377Z,24
2017-10-30T05:40:37.975Z,32
2017-10-30T05:41:50.271Z,36
2017-10-30T05:43:02.891Z,44
2017-10-30T05:44:15.182Z,56
2017-10-30T05:45:27.783Z,64
2017-10-30T05:46:40.376Z,72
2017-10-30T05:47:52.671Z,88
2017-10-30T05:49:04.941Z,100
2017-10-30T05:50:17.215Z,120
2017-10-30T05:51:29.485Z,136
2017-10-30T05:52:42.079Z,160
2017-10-30T05:53:54.693Z,180
2017-10-30T05:55:07.314Z,204
2017-10-30T05:56:19.611Z,232
2017-10-30T05:57:31.902Z,260
2017-10-30T05:58:43.886Z,292
2017-10-30T05:59:56.177Z,320
2017-10-30T06:01:08.454Z,352
2017-10-30T06:02:21.067Z,388
2017-10-30T06:03:33.684Z,428
2017-10-30T06:04:46.304Z,464
2017-10-30T06:05:58.604Z,504
2017-10-30T06:07:10.575Z,548
2017-10-30T06:08:23.147Z,588
2017-10-30T06:09:35.744Z,632
2017-10-30T06:10:48.364Z,680
2017-10-30T06:12:00.979Z,720
2017-10-30T06:13:13.257Z,768
2017-10-30T06:14:25.842Z,816
2017-10-30T06:15:38.452Z,864
2017-10-30T06:16:50.740Z,912
2017-10-30T06:18:03.340Z,960
2017-10-30T06:19:15.974Z,1004
2017-10-30T06:20:28.605Z,1052
2017-10-30T06:21:41.226Z,1104
2017-10-30T06:22:52.889Z,1148
2017-10-30T06:24:05.480Z,1192
2017-10-30T06:25:17.797Z,1236
2017-10-30T06:26:30.410Z,1288
2017-10-30T06:27:42.693Z,1332
2017-10-30T06:28:55.345Z,1380
2017-10-30T06:30:07.635Z,1424
2017-10-30T06:31:19.917Z,1468
2017-10-30T06:32:31.900Z,1516
2017-10-30T06:33:44.526Z,1560
2017-10-30T06:34:57.128Z,1608
2017-10-30T06:36:09.388Z,1656
2017-10-30T06:37:21.659Z,1704
2017-10-30T06:38:33.930Z,1744
2017-10-30T06:39:46.174Z,1784
2017-10-30T06:40:58.446Z,1824
2017-10-30T06:42:11.061Z,1856
2017-10-30T06:43:23.695Z,1900
2017-10-30T06:44:36.286Z,1940
2017-10-30T06:45:48.864Z,1980
2017-10-30T06:47:01.506Z,2020
2017-10-30T06:48:14.103Z,2056
2017-10-30T06:49:26.730Z,2088
2017-10-30T06:50:39.315Z,2112
2017-10-30T06:51:51.939Z,2148
2017-10-30T06:53:04.527Z,2176
2017-10-30T06:54:17.127Z,2220
2017-10-30T06:55:29.730Z,2264
2017-10-30T06:56:41.697Z,2292
2017-10-30T06:57:54.313Z,2336
2017-10-30T06:59:06.941Z,2504
2017-10-30T07:00:19.534Z,2836
2017-10-30T07:01:31.805Z,2848
2017-10-30T07:02:44.426Z,3448
2017-10-30T07:03:57.041Z,3264
2017-10-30T07:05:09.661Z,3580
2017-10-30T07:06:22.289Z,2904
2017-10-30T07:07:34.863Z,2912
2017-10-30T07:08:47.448Z,3084
2017-10-30T07:10:00.053Z,3344
2017-10-30T07:11:12.661Z,2772
2017-10-30T07:12:25.236Z,2664
2017-10-30T07:13:36.890Z,2660
2017-10-30T07:14:49.503Z,2680
2017-10-30T07:16:01.780Z,2712
2017-10-30T07:17:14.075Z,2744
2017-10-30T07:18:26.949Z,2756
2017-10-30T07:19:39.590Z,2796
2017-10-30T07:20:51.865Z,2812
2017-10-30T07:22:04.195Z,2828
2017-10-30T07:23:16.782Z,2852
2017-10-30T07:24:29.074Z,2848
2017-10-30T07:25:41.668Z,2860
2017-10-30T07:26:54.241Z,2896
2017-10-30T07:28:06.553Z,2904
2017-10-30T07:29:19.183Z,2904
2017-10-30T07:30:31.164Z,2916
2017-10-30T07:31:43.775Z,2936
2017-10-30T07:32:56.394Z,2956
2017-10-30T07:34:09.033Z,2984
2017-10-30T07:35:21.659Z,3004
2017-10-30T07:36:34.277Z,3032
2017-10-30T07:37:46.550Z,3056
2017-10-30T07:38:59.147Z,3096
2017-10-30T07:40:11.743Z,3148
2017-10-30T07:41:24.363Z,3284
2017-10-30T07:42:36.663Z,3284
2017-10-30T07:43:48.956Z,3224
2017-10-30T07:45:01.597Z,3240
2017-10-30T07:46:14.197Z,3420
2017-10-30T07:47:26.834Z,3500
2017-10-30T07:48:39.451Z,4028
2017-10-30T07:49:52.073Z,3924
2017-10-30T07:51:04.674Z,3548
2017-10-30T07:52:16.649Z,3292
2017-10-30T07:53:29.266Z,3296
2017-10-30T07:54:41.890Z,3488
2017-10-30T07:55:54.185Z,3504
2017-10-30T07:57:06.484Z,3388
2017-10-30T07:58:19.103Z,3348
2017-10-30T07:59:31.395Z,3348
2017-10-30T08:00:43.718Z,3356
2017-10-30T08:01:56.556Z,3348
2017-10-30T08:03:08.860Z,3340
2017-10-30T08:04:21.473Z,3352
2017-10-30T08:05:34.093Z,3356
2017-10-30T08:06:46.396Z,3376
2017-10-30T08:07:58.692Z,3404
2017-10-30T08:09:11.280Z,3404
2017-10-30T08:10:23.888Z,3384
2017-10-30T08:11:36.482Z,3376
2017-10-30T08:12:49.097Z,3396
2017-10-30T08:14:01.701Z,3396
2017-10-30T08:15:14.356Z,3400
2017-10-30T08:16:26.937Z,3400
2017-10-30T08:17:39.531Z,3404
2017-10-30T08:18:51.504Z,3416
2017-10-30T08:20:04.096Z,3396
2017-10-30T08:21:16.694Z,3420
2017-10-30T08:22:28.965Z,3428
2017-10-30T08:23:41.558Z,3428
2017-10-30T08:24:54.171Z,3416
2017-10-30T08:26:06.766Z,3424
2017-10-30T08:27:19.369Z,3444
2017-10-30T08:28:31.640Z,3464
2017-10-30T08:29:43.586Z,3468
2017-10-30T08:30:55.836Z,3484
2017-10-30T08:32:08.126Z,3476
2017-10-30T08:33:20.729Z,3480
2017-10-30T08:34:32.697Z,3512
2017-10-30T08:35:45.292Z,3516
2017-10-30T08:36:57.886Z,3532
2017-10-30T08:38:10.484Z,3520
2017-10-30T08:39:23.105Z,3536
2017-10-30T08:40:35.696Z,3540
2017-10-30T08:41:47.988Z,3548
2017-10-30T08:43:00.641Z,3556
2017-10-30T08:44:12.913Z,3580
2017-10-30T08:45:25.207Z,3572
2017-10-30T08:46:37.824Z,3564
2017-10-30T08:47:50.500Z,3600
2017-10-30T08:49:02.810Z,3612
2017-10-30T08:50:15.430Z,3628
2017-10-30T08:51:28.028Z,3652
2017-10-30T08:52:40.306Z,3656
2017-10-30T08:53:52.906Z,3656
2017-10-30T08:55:05.498Z,3652
2017-10-30T08:56:18.120Z,3660
2017-10-30T08:57:30.413Z,3668
2017-10-30T08:58:42.714Z,3680
2017-10-30T08:59:55.005Z,3720
2017-10-30T09:01:07.626Z,3740
2017-10-30T09:02:20.238Z,3756
2017-10-30T09:03:32.217Z,3804
2017-10-30T09:04:44.812Z,3720
2017-10-30T09:05:57.456Z,3728
2017-10-30T09:07:10.076Z,3728
2017-10-30T09:08:22.698Z,3752
2017-10-30T09:09:35.294Z,3748
2017-10-30T09:10:47.609Z,3760
2017-10-30T09:12:00.226Z,3804
2017-10-30T09:13:12.520Z,4148
2017-10-30T09:14:25.107Z,3784
2017-10-30T09:15:37.722Z,3804
2017-10-30T09:16:50.316Z,3792
2017-10-30T09:18:03.165Z,3788
2017-10-30T09:19:15.778Z,3800
2017-10-30T09:20:28.399Z,3808
2017-10-30T09:21:40.670Z,3816
2017-10-30T09:22:52.976Z,3840
2017-10-30T09:24:05.565Z,3844
2017-10-30T09:25:17.885Z,3828
2017-10-30T09:26:30.188Z,3860
2017-10-30T09:27:42.829Z,3848
2017-10-30T09:28:55.102Z,3852
2017-10-30T09:30:07.396Z,3852
2017-10-30T09:31:20.031Z,3848
2017-10-30T09:32:32.638Z,3860
2017-10-30T09:33:45.262Z,3884
2017-10-30T09:34:57.871Z,3900
2017-10-30T09:36:10.167Z,3900
2017-10-30T09:37:22.795Z,3916
2017-10-30T09:38:35.079Z,3920
2017-10-30T09:39:47.678Z,3944
2017-10-30T09:41:00.302Z,3940
2017-10-30T09:42:12.575Z,3952
2017-10-30T09:43:25.198Z,3988
2017-10-30T09:44:37.144Z,4020
2017-10-30T09:45:49.128Z,4060
2017-10-30T09:47:01.400Z,4112
2017-10-30T09:48:13.702Z,4200
2017-10-30T09:49:25.640Z,4276
2017-10-30T09:50:38.245Z,4376
2017-10-30T09:51:50.892Z,4376
2017-10-30T09:53:03.513Z,4308
2017-10-30T09:54:16.151Z,4332
2017-10-30T09:55:28.144Z,4352
2017-10-30T09:56:40.425Z,4288
2017-10-30T09:57:52.392Z,4284
2017-10-30T09:59:05.022Z,4328
2017-10-30T10:00:17.625Z,4496
2017-10-30T10:01:30.473Z,4600
2017-10-30T10:02:43.104Z,4928
2017-10-30T10:03:55.401Z,5152
2017-10-30T10:05:07.683Z,5660
2017-10-30T10:06:19.961Z,6520
2017-10-30T10:07:32.583Z,7944
2017-10-30T10:08:45.179Z,8628
2017-10-30T10:09:57.804Z,7900
2017-10-30T10:11:10.099Z,6412
2017-10-30T10:12:22.394Z,5120
2017-10-30T10:13:34.389Z,4320
2017-10-30T10:14:46.985Z,3656
2017-10-30T10:15:59.257Z,3804
2017-10-30T10:17:11.872Z,3684
2017-10-30T10:18:24.471Z,3820
2017-10-30T10:19:36.739Z,4048
2017-10-30T10:20:49.360Z,4036
2017-10-30T10:22:01.655Z,4084
2017-10-30T10:23:13.646Z,4104
2017-10-30T10:24:26.267Z,4032
2017-10-30T10:25:38.892Z,4072
2017-10-30T10:26:51.491Z,4060
2017-10-30T10:28:04.104Z,4040
2017-10-30T10:29:16.708Z,4032
2017-10-30T10:30:29.341Z,4036
2017-10-30T10:31:41.288Z,4040
2017-10-30T10:32:53.269Z,4024
2017-10-30T10:34:05.861Z,4032
2017-10-30T10:35:18.128Z,4044
2017-10-30T10:36:30.744Z,4032
2017-10-30T10:37:42.998Z,4020
2017-10-30T10:38:55.625Z,4044
2017-10-30T10:40:07.893Z,4020
2017-10-30T10:41:20.531Z,4024
2017-10-30T10:42:32.852Z,4092
2017-10-30T10:43:45.154Z,4036
2017-10-30T10:44:57.425Z,4008
2017-10-30T10:46:09.720Z,4008
2017-10-30T10:47:22.012Z,4004
2017-10-30T10:48:34.584Z,3992
2017-10-30T10:49:47.211Z,4004
2017-10-30T10:50:59.500Z,4060
2017-10-30T10:52:12.088Z,3988
2017-10-30T10:53:24.695Z,4024
2017-10-30T10:54:36.980Z,3988
2017-10-30T10:55:49.608Z,3988
2017-10-30T10:57:02.209Z,4000
2017-10-30T10:58:14.809Z,3976
2017-10-30T10:59:27.102Z,3988
2017-10-30T11:00:39.390Z,3988
2017-10-30T11:01:52.011Z,4028
2017-10-30T11:03:04.282Z,4000
2017-10-30T11:04:16.870Z,3976
2017-10-30T11:05:29.131Z,3976
2017-10-30T11:06:41.764Z,3980
2017-10-30T11:07:54.438Z,3992
2017-10-30T11:09:06.414Z,4008
2017-10-30T11:10:19.060Z,4008
2017-10-30T11:11:31.676Z,3972
2017-10-30T11:12:44.296Z,4000
2017-10-30T11:13:56.621Z,4000
2017-10-30T11:15:08.910Z,4016
2017-10-30T11:16:21.526Z,4000
2017-10-30T11:17:34.108Z,3996
2017-10-30T11:18:46.376Z,3988
2017-10-30T11:19:59.005Z,3992
2017-10-30T11:21:11.619Z,3980
2017-10-30T11:22:23.915Z,4096
2017-10-30T11:23:36.511Z,3984
2017-10-30T11:24:49.125Z,3988
2017-10-30T11:26:01.741Z,3988
2017-10-30T11:27:13.372Z,4012
2017-10-30T11:28:25.962Z,4000
2017-10-30T11:29:38.553Z,3996
2017-10-30T11:30:51.149Z,3676
2017-10-30T11:32:03.403Z,4012
2017-10-30T11:33:16.050Z,4024
2017-10-30T11:34:28.647Z,4016
2017-10-30T11:35:40.931Z,4000
2017-10-30T11:36:53.523Z,4000
2017-10-30T11:38:06.122Z,4024
2017-10-30T11:39:18.728Z,4000
2017-10-30T11:40:31.001Z,4016
2017-10-30T11:41:43.596Z,4052
2017-10-30T11:42:55.889Z,4036
2017-10-30T11:44:08.479Z,4012
2017-10-30T11:45:21.107Z,3996
2017-10-30T11:46:33.393Z,4000
2017-10-30T11:47:45.698Z,4032
2017-10-30T11:48:57.690Z,3988
2017-10-30T11:50:09.687Z,4008
2017-10-30T11:51:22.307Z,3972
2017-10-30T11:52:34.924Z,3996
2017-10-30T11:53:47.499Z,3992
2017-10-30T11:55:00.094Z,4044
2017-10-30T11:56:12.086Z,3992
2017-10-30T11:57:24.706Z,3988
2017-10-30T11:58:37.330Z,4004
2017-10-30T11:59:49.602Z,4052
2017-10-30T12:01:02.231Z,4132
2017-10-30T12:02:14.551Z,4172
2017-10-30T12:03:26.842Z,4344
2017-10-30T12:04:38.803Z,4672
2017-10-30T12:05:51.100Z,5164
2017-10-30T12:07:03.729Z,5240
2017-10-30T12:08:15.692Z,3708
2017-10-30T12:09:28.341Z,4240
2017-10-30T12:10:40.934Z,4276
2017-10-30T12:11:53.241Z,3724
2017-10-30T12:13:05.875Z,4352
2017-10-30T12:14:17.825Z,4652
2017-10-30T12:15:30.088Z,6628
2017-10-30T12:16:42.086Z,6600
2017-10-30T12:17:54.679Z,6880
2017-10-30T12:19:07.252Z,7876
2017-10-30T12:20:19.860Z,8176
2017-10-30T12:21:31.819Z,8856
2017-10-30T12:22:44.423Z,9144
2017-10-30T12:23:57.015Z,8692
2017-10-30T12:25:09.280Z,7976
2017-10-30T12:26:21.590Z,10588
2017-10-30T12:27:34.205Z,13392
2017-10-30T12:28:46.799Z,10876
2017-10-30T12:29:59.410Z,8840
2017-10-30T12:31:11.992Z,7716
2017-10-30T12:32:24.589Z,7928
2017-10-30T12:33:37.205Z,9524
2017-10-30T12:34:49.793Z,9756
2017-10-30T12:36:02.095Z,9128
2017-10-30T12:37:14.387Z,8440
2017-10-30T12:38:26.666Z,10476
2017-10-30T12:39:39.561Z,13348
2017-10-30T12:40:51.555Z,13424
2017-10-30T12:42:04.178Z,12708
2017-10-30T12:43:16.447Z,15504
2017-10-30T12:44:28.143Z,17408
2017-10-30T12:45:40.439Z,14852
2017-10-30T12:46:53.039Z,9344
2017-10-30T12:48:05.024Z,6144
2017-10-30T12:49:17.627Z,6036
2017-10-30T12:50:30.219Z,6696
2017-10-30T12:51:42.839Z,6760
2017-10-30T12:52:55.138Z,6244
2017-10-30T12:54:07.751Z,5556
2017-10-30T12:55:20.073Z,3844
2017-10-30T12:56:32.701Z,3488
2017-10-30T12:57:44.964Z,3264
2017-10-30T12:58:57.581Z,4904
2017-10-30T13:00:09.843Z,6988
2017-10-30T13:01:22.403Z,8260
2017-10-30T13:02:34.702Z,8840
2017-10-30T13:03:47.362Z,8116
2017-10-30T13:04:59.345Z,8416
2017-10-30T13:06:12.058Z,7460
2017-10-30T13:07:24.359Z,7520
2017-10-30T13:08:36.636Z,6424
2017-10-30T13:09:48.902Z,6352
2017-10-30T13:11:01.516Z,8000
2017-10-30T13:12:14.122Z,8088
2017-10-30T13:13:26.070Z,5872
2017-10-30T13:14:38.386Z,4216
2017-10-30T13:15:50.698Z,4020
2017-10-30T13:17:02.672Z,4588
2017-10-30T13:18:15.262Z,6068
2017-10-30T13:19:27.885Z,4460
2017-10-30T13:20:40.505Z,3852
2017-10-30T13:21:53.126Z,4036
2017-10-30T13:23:05.130Z,4164
2017-10-30T13:24:17.746Z,4212
2017-10-30T13:25:30.019Z,3792
2017-10-30T13:26:42.315Z,3684
2017-10-30T13:27:54.616Z,3856
2017-10-30T13:29:06.901Z,3420
2017-10-30T13:30:19.554Z,3416
2017-10-30T13:31:32.174Z,3412
2017-10-30T13:32:44.773Z,3404
2017-10-30T13:33:57.387Z,3384
2017-10-30T13:35:09.708Z,3372
2017-10-30T13:36:21.974Z,2996
2017-10-30T13:37:34.577Z,3464
2017-10-30T13:38:47.447Z,3724
2017-10-30T13:40:00.118Z,3572
2017-10-30T13:41:12.406Z,3380
2017-10-30T13:42:25.052Z,3260
2017-10-30T13:43:37.347Z,3284
2017-10-30T13:44:49.969Z,3240
2017-10-30T13:46:02.586Z,3252
2017-10-30T13:47:14.892Z,3216
2017-10-30T13:48:27.502Z,2832
2017-10-30T13:49:40.130Z,2756
2017-10-30T13:50:52.392Z,3152
2017-10-30T13:52:05.050Z,3128
2017-10-30T13:53:17.345Z,3124
2017-10-30T13:54:29.641Z,3108
2017-10-30T13:55:41.583Z,3088
2017-10-30T13:56:53.875Z,3124
2017-10-30T13:58:06.492Z,3092
2017-10-30T13:59:18.437Z,3080
2017-10-30T14:00:31.033Z,3064
2017-10-30T14:01:43.022Z,3040
2017-10-30T14:02:55.332Z,3032
2017-10-30T14:04:07.935Z,3000
2017-10-30T14:05:20.561Z,3020
2017-10-30T14:06:32.873Z,2968
2017-10-30T14:07:45.466Z,2972
2017-10-30T14:08:57.754Z,2932
2017-10-30T14:10:10.027Z,2908
2017-10-30T14:11:22.653Z,2852
2017-10-30T14:12:35.276Z,2836
2017-10-30T14:13:47.902Z,2832
2017-10-30T14:15:00.180Z,2824
2017-10-30T14:16:12.786Z,2784
2017-10-30T14:17:25.061Z,2764
2017-10-30T14:18:37.343Z,2752
2017-10-30T14:19:49.624Z,2732
2017-10-30T14:21:01.571Z,2704
2017-10-30T14:22:13.880Z,2684
2017-10-30T14:23:26.488Z,2660
2017-10-30T14:24:38.460Z,2652
2017-10-30T14:25:51.083Z,2616
2017-10-30T14:27:03.349Z,2608
2017-10-30T14:28:15.620Z,2576
2017-10-30T14:29:28.239Z,2556
2017-10-30T14:30:40.529Z,2536
2017-10-30T14:31:52.827Z,2524
2017-10-30T14:33:05.442Z,2500
2017-10-30T14:34:17.746Z,2472
2017-10-30T14:35:30.357Z,2456
2017-10-30T14:36:42.653Z,2432
2017-10-30T14:37:55.251Z,2412
2017-10-30T14:39:07.878Z,2352
2017-10-30T14:40:20.497Z,2324
2017-10-30T14:41:33.097Z,2264
2017-10-30T14:42:45.418Z,2228
2017-10-30T14:43:57.688Z,2212
2017-10-30T14:45:09.981Z,2196
2017-10-30T14:46:22.646Z,2128
2017-10-30T14:47:34.950Z,2140
2017-10-30T14:48:47.548Z,2172
2017-10-30T14:50:00.143Z,2152
2017-10-30T14:51:12.444Z,2132
2017-10-30T14:52:25.049Z,2168
2017-10-30T14:53:37.022Z,2172
2017-10-30T14:54:49.020Z,2212
2017-10-30T14:56:01.617Z,2212
2017-10-30T14:57:13.915Z,2132
2017-10-30T14:58:26.513Z,2176
2017-10-30T14:59:38.780Z,2212
2017-10-30T15:00:51.649Z,2128
2017-10-30T15:02:03.945Z,2128
2017-10-30T15:03:16.561Z,2168
2017-10-30T15:04:29.182Z,2164
2017-10-30T15:05:41.798Z,2144
2017-10-30T15:06:54.394Z,2080
2017-10-30T15:08:07.026Z,2012
2017-10-30T15:09:19.645Z,1880
2017-10-30T15:10:31.909Z,1712
2017-10-30T15:11:44.506Z,1548
2017-10-30T15:12:56.779Z,1428
2017-10-30T15:14:09.422Z,1320
2017-10-30T15:15:21.398Z,1232
2017-10-30T15:16:34.021Z,1160
2017-10-30T15:17:46.339Z,1104
2017-10-30T15:18:58.965Z,1052
2017-10-30T15:20:11.560Z,1000
2017-10-30T15:21:24.181Z,944
2017-10-30T15:22:36.462Z,892
2017-10-30T15:23:49.110Z,840
2017-10-30T15:25:01.380Z,796
2017-10-30T15:26:13.683Z,764
2017-10-30T15:27:26.002Z,728
2017-10-30T15:28:38.319Z,708
2017-10-30T15:29:50.971Z,676
2017-10-30T15:31:03.592Z,620
2017-10-30T15:32:16.207Z,564
2017-10-30T15:33:28.483Z,500
2017-10-30T15:34:40.803Z,448
2017-10-30T15:35:53.400Z,400
2017-10-30T15:37:06.018Z,360
2017-10-30T15:38:18.308Z,308
2017-10-30T15:39:30.612Z,260
2017-10-30T15:40:42.933Z,216
2017-10-30T15:41:55.546Z,192
2017-10-30T15:43:07.822Z,164
2017-10-30T15:44:20.463Z,144
2017-10-30T15:45:32.120Z,132
2017-10-30T15:46:44.712Z,120
2017-10-30T15:47:56.995Z,100
2017-10-30T15:49:09.599Z,84
2017-10-30T15:50:21.545Z,64
2017-10-30T15:51:34.144Z,52
2017-10-30T15:52:46.406Z,40
2017-10-30T15:53:59.002Z,36
2017-10-30T15:55:11.295Z,32
2017-10-30T15:56:23.875Z,32
2017-10-30T15:57:36.472Z,28
2017-10-30T15:58:48.464Z,28
2017-10-30T16:00:01.315Z,20
2017-10-30T16:01:13.938Z,16
2017-10-30T16:02:26.531Z,16
2017-10-30T16:03:38.815Z,12
2017-10-30T16:04:51.397Z,12
2017-10-30T16:06:03.710Z,8
2017-10-30T16:07:16.301Z,8
2017-10-30T16:08:28.908Z,4
2017-10-30T16:09:41.208Z,4
2017-10-30T16:10:53.821Z,4
2017-10-30T16:12:06.084Z,4
2017-10-30T16:13:18.379Z,0
2017-10-30T16:14:30.986Z,4
2017-10-30T16:15:43.262Z,4
2017-10-30T16:16:55.224Z,4
2017-10-30T16:18:07.823Z,0
2017-10-30T16:19:20.098Z,0
2017-10-30T16:20:32.703Z,0
2017-10-30T16:21:44.984Z,0
2017-10-30T16:22:57.270Z,0
2017-10-30T16:24:09.598Z,0
2017-10-30T16:25:21.560Z,0
2017-10-30T16:26:34.139Z,0
2017-10-30T16:27:46.737Z,0
2017-10-30T16:28:59.332Z,0
2017-10-30T16:30:11.929Z,0
2017-10-30T16:31:24.243Z,0
2017-10-30T16:32:36.859Z,0
2017-10-30T16:33:49.458Z,0
2017-10-30T16:35:02.088Z,0
2017-10-30T16:36:14.696Z,0
2017-10-30T16:37:27.300Z,0
2017-10-30T16:38:39.577Z,0
2017-10-30T16:39:51.216Z,0
2017-10-30T16:41:03.516Z,0
2017-10-30T16:42:16.141Z,0
2017-10-30T16:43:28.755Z,0
2017-10-30T16:44:40.068Z,0